createdAt,value
2019-04-16T00:03:54.046Z,6.20
2019-04-16T00:08:57.311Z,5.70
2019-04-16T00:14:03.046Z,5.70
2019-04-16T00:19:03.883Z,5.70
2019-04-16T00:24:19.551Z,5.80
2019-04-16T00:29:15.416Z,5.80
2019-04-16T00:34:13.712Z,5.60
2019-04-16T00:39:09.408Z,5.60
2019-04-16T00:44:05.222Z,5.50
2019-04-16T00:49:01.016Z,5.50
2019-04-16T00:53:56.992Z,5.60
2019-04-16T00:58:53.089Z,5.60
2019-04-16T01:03:48.938Z,5.70
2019-04-16T01:08:54.328Z,5.50
2019-04-16T01:13:46.042Z,5.20
2019-04-16T01:18:44.345Z,5.20
2019-04-16T01:23:40.190Z,5.10
2019-04-16T01:28:39.449Z,5.30
2019-04-16T01:33:46.747Z,5.10
2019-04-16T01:39:07.468Z,4.90
2019-04-16T01:43:54.347Z,4.80
2019-04-16T01:48:49.392Z,4.90
2019-04-16T01:53:45.162Z,4.80
2019-04-16T01:58:40.965Z,4.80
2019-04-16T02:03:36.844Z,4.70
2019-04-16T02:08:32.603Z,4.70
2019-04-16T02:13:28.417Z,4.60
2019-04-16T02:18:24.134Z,4.50
2019-04-16T02:23:19.957Z,4.50
2019-04-16T02:28:16.011Z,4.60
2019-04-16T02:33:11.985Z,4.50
2019-04-16T02:38:12.320Z,4.40
2019-04-16T02:43:07.487Z,4.30
2019-04-16T02:48:02.955Z,4.20
2019-04-16T02:53:05.011Z,4.20
2019-04-16T02:58:19.622Z,4.20
2019-04-16T03:03:22.264Z,4.20
2019-04-16T03:08:18.790Z,4.00
2019-04-16T03:13:14.825Z,3.90
2019-04-16T03:18:11.752Z,3.80
2019-04-16T03:23:08.902Z,3.90
2019-04-16T03:28:04.840Z,4.00
2019-04-16T03:33:00.599Z,3.90
2019-04-16T03:37:56.349Z,3.70
2019-04-16T03:42:52.084Z,3.70
2019-04-16T03:47:50.978Z,3.60
2019-04-16T03:52:45.769Z,3.50
2019-04-16T03:57:41.669Z,3.50
2019-04-16T04:02:37.394Z,3.50
2019-04-16T04:07:33.112Z,3.40
2019-04-16T04:12:29.094Z,3.30
2019-04-16T04:17:25.229Z,3.40
2019-04-16T04:22:22.743Z,3.40
2019-04-16T04:27:19.418Z,3.50
2019-04-16T04:32:16.091Z,3.30
2019-04-16T04:37:11.820Z,3.40
2019-04-16T04:42:07.566Z,3.30
2019-04-16T04:47:03.543Z,3.30
2019-04-16T04:51:59.408Z,3.20
2019-04-16T04:56:56.389Z,3.20
2019-04-16T05:01:52.673Z,3.20
2019-04-16T05:06:54.352Z,3.20
2019-04-16T05:11:49.628Z,3.30
2019-04-16T05:16:45.413Z,3.40
2019-04-16T05:21:41.257Z,3.70
2019-04-16T05:26:37.345Z,3.70
2019-04-16T05:31:33.215Z,3.80
2019-04-16T05:36:28.956Z,3.90
2019-04-16T05:41:24.788Z,4.00
2019-04-16T05:46:21.060Z,4.20
2019-04-16T05:51:17.073Z,4.30
2019-04-16T05:56:24.059Z,4.30
2019-04-16T06:01:29.393Z,4.50
2019-04-16T06:06:25.161Z,4.70
2019-04-16T06:11:29.200Z,4.90
2019-04-16T06:16:31.152Z,5.10
2019-04-16T06:21:56.733Z,5.30
2019-04-16T06:27:01.844Z,5.40
2019-04-16T06:32:11.838Z,5.60
2019-04-16T06:37:20.736Z,5.80
2019-04-16T06:42:34.292Z,5.90
2019-04-16T06:47:55.112Z,5.90
2019-04-16T06:53:06.988Z,6.10
2019-04-16T06:58:20.334Z,6.40
2019-04-16T07:03:33.396Z,6.80
2019-04-16T07:08:41.652Z,7.30
2019-04-16T07:13:35.104Z,7.70
2019-04-16T07:18:39.372Z,7.80
2019-04-16T07:23:40.442Z,7.90
2019-04-16T07:28:46.744Z,7.80
2019-04-16T07:34:07.285Z,8.10
2019-04-16T07:39:29.657Z,8.50
2019-04-16T07:44:39.270Z,8.90
2019-04-16T07:49:42.930Z,9.30
2019-04-16T07:54:58.487Z,10.00
2019-04-16T07:59:54.895Z,10.50
2019-04-16T08:04:53.178Z,11.10
2019-04-16T08:09:52.349Z,11.00
2019-04-16T08:14:52.983Z,10.90
2019-04-16T08:19:55.159Z,10.80
2019-04-16T08:25:02.516Z,11.30
2019-04-16T08:30:03.418Z,11.90
2019-04-16T08:35:25.091Z,12.10
2019-04-16T08:46:19.065Z,12.30
2019-04-16T08:51:29.589Z,12.60
2019-04-16T08:56:30.647Z,12.90
2019-04-16T09:02:07.114Z,13.00
2019-04-16T09:07:23.969Z,13.20
2019-04-16T09:12:40.768Z,13.20
2019-04-16T09:18:00.796Z,13.60
2019-04-16T09:23:05.189Z,13.60
2019-04-16T09:28:32.400Z,13.50
2019-04-16T09:34:26.911Z,13.70
2019-04-16T09:39:31.023Z,13.70
2019-04-16T09:44:36.924Z,14.00
2019-04-16T09:49:34.446Z,14.20
2019-04-16T09:54:31.739Z,14.20
2019-04-16T09:59:59.183Z,14.20
2019-04-16T10:05:05.355Z,14.30
2019-04-16T10:10:03.447Z,14.40
2019-04-16T10:15:02.660Z,14.30
2019-04-16T10:20:11.582Z,14.40
2019-04-16T10:25:19.396Z,14.70
2019-04-16T10:30:55.613Z,14.90
2019-04-16T10:35:46.476Z,14.90
2019-04-16T10:40:47.885Z,15.00
2019-04-16T10:46:09.617Z,15.00
2019-04-16T10:51:22.182Z,15.10
2019-04-16T10:56:40.336Z,15.20
2019-04-16T11:01:54.562Z,15.30
2019-04-16T11:07:00.819Z,15.50
2019-04-16T11:11:54.772Z,15.60
2019-04-16T11:16:53.639Z,15.70
2019-04-16T11:21:49.799Z,16.00
2019-04-16T11:26:52.500Z,16.20
2019-04-16T11:31:47.247Z,16.40
2019-04-16T11:36:43.522Z,16.50
2019-04-16T11:41:46.462Z,16.70
2019-04-16T11:46:52.932Z,16.90
2019-04-16T11:51:49.161Z,16.90
2019-04-16T11:56:49.573Z,16.80
2019-04-16T12:02:00.152Z,16.80
2019-04-16T12:07:28.611Z,16.90
2019-04-16T12:12:36.368Z,16.80
2019-04-16T12:17:54.422Z,16.70
2019-04-16T12:23:05.438Z,16.80
2019-04-16T12:28:29.858Z,16.80
2019-04-16T12:34:04.058Z,16.90
2019-04-16T12:39:19.551Z,16.80
2019-04-16T12:44:44.444Z,16.60
2019-04-16T12:49:50.386Z,16.70
2019-04-16T12:55:03.908Z,16.80
2019-04-16T13:00:12.542Z,17.10
2019-04-16T13:05:13.486Z,17.30
2019-04-16T13:10:16.224Z,17.20
2019-04-16T13:15:42.893Z,17.10
2019-04-16T13:21:05.403Z,17.00
2019-04-16T13:26:05.524Z,17.20
2019-04-16T13:31:04.165Z,17.20
2019-04-16T13:36:26.501Z,17.20
2019-04-16T13:41:48.026Z,17.40
2019-04-16T13:47:04.161Z,17.60
2019-04-16T13:52:30.285Z,17.70
2019-04-16T13:58:03.216Z,17.80
2019-04-16T14:03:11.761Z,17.80
2019-04-16T14:08:06.994Z,17.60
2019-04-16T14:13:06.172Z,17.50
2019-04-16T14:18:21.853Z,17.30
2019-04-16T14:24:38.898Z,17.30
2019-04-16T14:29:39.782Z,17.30
2019-04-16T14:40:45.005Z,17.40
2019-04-16T14:45:59.168Z,17.30
2019-04-16T14:50:51.028Z,17.20
2019-04-16T14:56:11.910Z,17.10
2019-04-16T15:01:31.483Z,16.90
2019-04-16T15:06:49.178Z,16.70
2019-04-16T15:12:16.728Z,16.60
2019-04-16T15:23:27.764Z,16.50
2019-04-16T15:28:51.726Z,16.50
2019-04-16T15:34:19.874Z,16.40
2019-04-16T15:39:35.369Z,16.50
2019-04-16T15:44:56.227Z,16.60
2019-04-16T15:50:11.386Z,16.60
2019-04-16T15:55:47.273Z,16.60
2019-04-16T16:07:39.024Z,16.40
2019-04-16T16:13:29.995Z,16.30
2019-04-16T16:19:18.188Z,16.20
2019-04-16T16:24:58.049Z,16.00
2019-04-16T16:30:35.144Z,15.90
2019-04-16T16:35:57.749Z,15.70
2019-04-16T16:41:21.208Z,15.60
2019-04-16T16:46:39.649Z,15.50
2019-04-16T16:51:48.099Z,15.40
2019-04-16T16:57:02.106Z,15.30
2019-04-16T17:02:27.858Z,15.20
2019-04-16T17:08:02.805Z,15.00
2019-04-16T17:24:32.994Z,14.70
2019-04-16T17:30:09.316Z,14.50
2019-04-16T17:38:03.867Z,14.40
2019-04-16T17:41:24.707Z,14.30
2019-04-16T17:59:04.569Z,14.00
2019-04-16T18:10:56.571Z,13.80
2019-04-16T18:16:05.013Z,13.80
2019-04-16T18:21:31.870Z,13.60
2019-04-16T18:26:55.644Z,13.50
2019-04-16T18:32:21.064Z,13.50
2019-04-16T18:37:41.904Z,13.50
2019-04-16T18:42:51.360Z,13.50
2019-04-16T18:48:02.717Z,13.40
2019-04-16T18:52:49.330Z,13.40
2019-04-16T18:57:47.842Z,13.30
2019-04-16T19:02:43.828Z,13.30
2019-04-16T19:07:40.694Z,13.20
2019-04-16T19:12:36.438Z,13.20
2019-04-16T19:17:32.365Z,13.10
2019-04-16T19:22:28.231Z,13.10
2019-04-16T19:27:24.234Z,13.00
2019-04-16T19:32:20.382Z,12.90
2019-04-16T19:38:11.657Z,13.00
2019-04-16T19:43:46.790Z,13.00
2019-04-16T19:49:35.763Z,13.10
2019-04-16T20:18:49.958Z,12.10
2019-04-16T20:23:43.738Z,11.90
2019-04-16T20:29:09.564Z,11.80
2019-04-16T20:34:01.681Z,11.80
2019-04-16T20:45:06.049Z,11.30
2019-04-16T20:50:32.501Z,11.10
2019-04-16T20:56:10.544Z,11.10
2019-04-16T21:01:44.363Z,11.00
2019-04-16T21:07:16.946Z,10.70
2019-04-16T21:13:42.762Z,10.70
2019-04-16T21:19:50.428Z,10.80
2019-04-16T21:33:23.142Z,10.70
2019-04-16T21:38:50.880Z,10.50
2019-04-16T21:44:04.152Z,10.70
2019-04-16T21:49:08.994Z,10.70
2019-04-16T21:54:13.204Z,10.80
2019-04-16T21:59:27.133Z,10.80
2019-04-16T22:04:42.662Z,10.90
2019-04-16T22:09:50.556Z,10.80
2019-04-16T22:15:00.650Z,10.80
2019-04-16T22:20:38.178Z,10.70
2019-04-16T22:25:27.809Z,10.70
2019-04-16T22:30:33.428Z,10.60
2019-04-16T22:35:49.244Z,10.50
2019-04-16T22:41:06.782Z,10.60
2019-04-16T22:46:15.005Z,10.80
2019-04-16T22:51:11.739Z,10.70
2019-04-16T22:56:07.671Z,10.80
2019-04-16T23:01:08.284Z,10.70
2019-04-16T23:06:06.308Z,10.60
2019-04-16T23:11:02.042Z,10.60
2019-04-16T23:16:06.148Z,10.50
2019-04-16T23:21:08.822Z,10.60
2019-04-16T23:26:13.621Z,10.60
2019-04-16T23:31:23.880Z,10.60
2019-04-16T23:36:44.609Z,10.60
2019-04-16T23:42:11.446Z,10.50
2019-04-16T23:47:42.066Z,10.50
2019-04-16T23:52:43.514Z,10.40
2019-04-16T23:58:01.471Z,10.50
